Terminal Aerodrome Forecast
Issued by NWS Missoula, MT

Home | Current Version | Previous Version | Text Only | Print | Product List | Glossary On
Versions: 1 2 3 4 5 6 7 8 9 10 11 12
000
FTUS45 KMSO 241100
TAFGPI
TAF
KGPI 241128Z 2412/2512 23005KT P6SM VCSH BKN040 OVC060
     FM242100 17012G19KT 5SM -RA BKN015 OVC030
     FM250200 20008KT P6SM -SHRA BKN030 OVC040
     FM250400 20006KT P6SM VCSH SCT040 BKN060=

USA.gov is the U.S. government's official web portal to all federal, state and local government web resources and services.